createdAt,value
2022-09-26T00:01:52.759Z,97649.19
2022-09-26T00:04:23.811Z,97680.88
2022-09-26T00:06:54.826Z,97618.78
2022-09-26T00:09:23.723Z,97610.06
2022-09-26T00:11:51.075Z,97689.59
2022-09-26T00:14:23.872Z,97685.97
2022-09-26T00:16:51.082Z,97646.78
2022-09-26T00:19:18.206Z,97593.63
2022-09-26T00:21:45.073Z,97670.13
2022-09-26T00:24:12.066Z,97649.03
2022-09-26T00:26:39.149Z,97655.09
2022-09-26T00:29:09.809Z,97648.19
2022-09-26T00:31:40.245Z,97681.06
2022-09-26T00:34:08.028Z,97680.28
2022-09-26T00:36:38.470Z,97607.03
2022-09-26T00:39:08.262Z,97680.88
2022-09-26T00:41:36.245Z,97630.94
2022-09-26T00:44:04.165Z,97676.19
2022-09-26T00:46:38.862Z,97675.78
2022-09-26T00:49:27.298Z,97628.28
2022-09-26T00:52:02.590Z,97667.88
2022-09-26T00:54:31.303Z,97658.91
2022-09-26T00:57:06.002Z,97564.03
2022-09-26T00:59:39.050Z,97630.56
2022-09-26T01:02:06.026Z,97580.53
2022-09-26T01:04:35.620Z,97664.22
2022-09-26T01:07:07.295Z,97632.91
2022-09-26T01:09:34.284Z,97628.91
2022-09-26T01:12:04.733Z,97656.66
2022-09-26T01:14:33.311Z,97652.25
2022-09-26T01:17:00.137Z,97540.41
2022-09-26T01:20:04.475Z,97646.66
2022-09-26T01:22:43.359Z,97605.88
2022-09-26T01:25:40.107Z,97470.25
2022-09-26T01:28:06.748Z,97644.38
2022-09-26T01:30:48.094Z,97574.97
2022-09-26T01:34:20.353Z,97635.47
2022-09-26T01:36:57.378Z,97633.47
2022-09-26T01:39:59.529Z,97567.59
2022-09-26T01:42:54.733Z,97592.38
2022-09-26T01:45:26.504Z,97584.03
2022-09-26T01:48:10.664Z,97551.22
2022-09-26T01:50:43.254Z,97548.75
2022-09-26T01:53:19.776Z,97621.28
2022-09-26T01:55:56.316Z,97615.19
2022-09-26T01:58:28.624Z,97582.31
2022-09-26T02:00:59.304Z,97546.16
2022-09-26T02:03:31.716Z,97530.88
2022-09-26T02:06:03.173Z,97439.16
2022-09-26T02:08:33.696Z,97477.34
2022-09-26T02:11:08.078Z,97499.25
2022-09-26T02:13:46.950Z,97597.91
2022-09-26T02:16:22.934Z,97409.56
2022-09-26T02:18:57.027Z,97564.06
2022-09-26T02:21:24.526Z,97544.56
2022-09-26T02:23:53.522Z,97588.16
2022-09-26T02:26:22.623Z,97562.25
2022-09-26T02:28:49.884Z,97413.03
2022-09-26T02:31:22.770Z,97582.41
2022-09-26T02:33:50.990Z,97482.19
2022-09-26T02:36:19.894Z,97298.59
2022-09-26T02:38:46.669Z,97518.78
2022-09-26T02:42:00.880Z,97568.09
2022-09-26T02:44:33.546Z,97515.69
2022-09-26T02:47:21.945Z,97560.44
2022-09-26T02:50:12.741Z,97506.00
2022-09-26T02:52:53.200Z,97447.03
2022-09-26T02:55:42.614Z,97552.13
2022-09-26T02:58:39.080Z,97543.84
2022-09-26T03:01:32.883Z,97499.69
2022-09-26T03:04:07.119Z,97541.56
2022-09-26T03:06:42.729Z,97523.69
2022-09-26T03:09:11.176Z,97500.78
2022-09-26T03:11:39.138Z,97443.72
2022-09-26T03:14:08.532Z,97438.00
2022-09-26T03:16:39.436Z,97532.84
2022-09-26T03:19:18.934Z,97462.06
2022-09-26T03:21:46.464Z,97305.16
2022-09-26T03:24:14.391Z,97499.06
2022-09-26T03:26:41.948Z,97461.34
2022-09-26T03:29:08.835Z,97530.72
2022-09-26T03:32:26.484Z,97526.09
2022-09-26T03:34:55.337Z,97471.28
2022-09-26T03:37:22.512Z,97485.66
2022-09-26T03:39:49.928Z,97482.84
2022-09-26T03:42:30.621Z,97438.56
2022-09-26T03:44:57.421Z,97433.88
2022-09-26T03:47:30.453Z,97481.13
2022-09-26T03:49:57.166Z,97422.34
2022-09-26T03:52:23.855Z,97374.03
2022-09-26T03:54:51.043Z,97275.97
2022-09-26T03:57:18.072Z,97458.22
2022-09-26T03:59:56.447Z,97442.25
2022-09-26T04:02:27.119Z,97441.41
2022-09-26T04:05:09.551Z,97410.66
2022-09-26T04:07:39.510Z,97379.91
2022-09-26T04:10:06.877Z,97452.84
2022-09-26T04:12:34.387Z,97448.34
2022-09-26T04:15:01.238Z,97311.25
2022-09-26T04:17:31.157Z,97476.38
2022-09-26T04:19:57.800Z,97441.88
2022-09-26T04:22:24.455Z,97374.38
2022-09-26T04:24:51.422Z,97425.09
2022-09-26T04:27:18.243Z,97156.22
2022-09-26T04:29:46.149Z,97190.59
2022-09-26T04:32:33.286Z,97410.09
2022-09-26T04:35:18.437Z,97423.69
2022-09-26T04:37:45.552Z,97393.44
2022-09-26T04:40:13.288Z,97270.19
2022-09-26T04:42:53.264Z,97436.03
2022-09-26T04:45:20.013Z,97393.03
2022-09-26T04:47:46.730Z,97233.06
2022-09-26T04:50:26.043Z,97413.84
2022-09-26T04:53:11.270Z,97332.63
2022-09-26T04:55:59.541Z,97441.38
2022-09-26T04:58:26.254Z,97356.56
2022-09-26T05:00:53.172Z,97439.59
2022-09-26T05:03:36.953Z,97441.81
2022-09-26T05:06:07.067Z,97351.56
2022-09-26T05:08:34.115Z,97424.34
2022-09-26T05:11:01.230Z,97351.69
2022-09-26T05:13:29.093Z,97293.56
2022-09-26T05:15:55.880Z,97428.03
2022-09-26T05:18:25.035Z,97345.16
2022-09-26T05:20:52.942Z,97301.81
2022-09-26T05:23:22.177Z,97420.22
2022-09-26T05:25:48.997Z,97341.81
2022-09-26T05:28:16.266Z,97296.38
2022-09-26T05:30:43.312Z,97373.06
2022-09-26T05:33:10.298Z,97226.25
2022-09-26T05:35:37.377Z,97281.38
2022-09-26T05:38:05.157Z,97322.56
2022-09-26T05:40:34.342Z,97403.84
2022-09-26T05:43:02.675Z,97402.81
2022-09-26T05:45:29.574Z,97294.97
2022-09-26T05:47:57.443Z,97320.91
2022-09-26T05:50:24.323Z,97401.69
2022-09-26T05:52:51.317Z,97333.34
2022-09-26T05:55:23.390Z,97366.09
2022-09-26T05:58:05.319Z,97339.78
2022-09-26T06:00:52.420Z,97372.75
2022-09-26T06:03:19.440Z,97321.75
2022-09-26T06:06:09.417Z,97387.09
2022-09-26T06:08:37.606Z,97379.09
2022-09-26T06:11:36.344Z,97315.13
2022-09-26T06:14:03.132Z,97217.34
2022-09-26T06:16:31.223Z,97088.44
2022-09-26T06:18:58.469Z,97380.78
2022-09-26T06:21:25.094Z,97345.91
2022-09-26T06:23:55.873Z,97271.84
2022-09-26T06:26:26.115Z,97297.59
2022-09-26T06:28:57.958Z,97377.78
2022-09-26T06:31:26.461Z,97280.63
2022-09-26T06:34:11.260Z,97315.06
2022-09-26T06:36:49.969Z,97374.59
2022-09-26T06:39:17.485Z,97305.16
2022-09-26T06:41:47.657Z,97308.19
2022-09-26T06:44:34.897Z,97321.56
2022-09-26T06:47:34.630Z,97344.81
2022-09-26T06:50:21.995Z,97287.13
2022-09-26T06:52:52.710Z,97272.97
2022-09-26T06:55:19.704Z,97314.19
2022-09-26T06:57:46.446Z,97332.97
2022-09-26T07:00:15.280Z,97302.00
2022-09-26T07:03:00.814Z,97300.75
2022-09-26T07:05:48.930Z,97273.75
2022-09-26T07:08:16.472Z,97198.72
2022-09-26T07:10:43.055Z,97305.63
2022-09-26T07:13:16.464Z,97305.63
2022-09-26T07:15:47.408Z,97290.84
2022-09-26T07:18:32.712Z,97278.69
2022-09-26T07:21:20.076Z,97301.75
2022-09-26T07:24:08.433Z,97275.19
2022-09-26T07:26:35.365Z,97299.13
2022-09-26T07:29:03.486Z,97277.44
2022-09-26T07:31:30.973Z,97265.50
2022-09-26T07:34:18.116Z,97328.34
2022-09-26T07:36:48.555Z,97264.84
2022-09-26T07:39:15.447Z,97130.25
2022-09-26T07:41:46.317Z,97255.84
2022-09-26T07:47:00.846Z,97253.13
2022-09-26T07:49:29.004Z,97287.00
2022-09-26T07:51:58.694Z,97252.84
2022-09-26T07:54:34.364Z,97303.50
2022-09-26T07:57:19.402Z,97172.03
2022-09-26T08:00:08.341Z,97311.34
2022-09-26T08:02:45.079Z,97313.94
2022-09-26T08:05:15.082Z,97296.56
2022-09-26T08:07:42.320Z,97097.19
2022-09-26T08:10:19.733Z,97251.28
2022-09-26T08:13:04.939Z,97272.22
2022-09-26T08:15:55.236Z,97302.19
2022-09-26T08:18:27.938Z,97285.28
2022-09-26T08:20:55.017Z,97248.50
2022-09-26T08:23:22.017Z,97131.81
2022-09-26T08:26:08.798Z,97243.47
2022-09-26T08:28:45.110Z,97222.56
2022-09-26T08:31:12.035Z,97222.94
2022-09-26T08:33:38.808Z,97255.44
2022-09-26T08:36:07.322Z,97193.91
2022-09-26T08:38:54.259Z,97281.78
2022-09-26T08:42:23.471Z,97281.84
2022-09-26T08:45:47.583Z,97268.28
2022-09-26T08:48:45.997Z,97265.47
2022-09-26T08:51:29.683Z,97269.69
2022-09-26T08:54:13.000Z,97084.41
2022-09-26T08:56:43.681Z,97258.66
2022-09-26T08:59:44.062Z,97252.59
2022-09-26T09:02:26.103Z,97202.75
2022-09-26T09:05:21.407Z,97255.34
2022-09-26T09:07:51.351Z,97106.47
2022-09-26T09:10:29.106Z,97159.81
2022-09-26T09:13:38.251Z,97237.44
2022-09-26T09:16:51.979Z,97216.22
2022-09-26T09:19:52.207Z,97220.91
2022-09-26T09:23:02.263Z,97217.50
2022-09-26T09:27:52.307Z,97163.09
2022-09-26T09:29:22.248Z,97164.91
2022-09-26T09:32:16.980Z,97095.25
2022-09-26T09:34:58.149Z,97058.84
2022-09-26T09:37:49.931Z,97058.72
2022-09-26T09:41:06.175Z,97195.91
2022-09-26T09:44:00.617Z,97200.63
2022-09-26T09:46:32.069Z,97179.56
2022-09-26T09:49:07.938Z,97201.28
2022-09-26T09:51:56.602Z,97204.34
2022-09-26T09:54:32.798Z,97142.25
2022-09-26T09:57:39.237Z,97194.50
2022-09-26T10:00:15.170Z,97130.81
2022-09-26T10:02:59.886Z,97186.19
2022-09-26T10:05:50.909Z,97173.25
2022-09-26T10:08:40.201Z,97180.06
2022-09-26T10:11:23.532Z,97175.69
2022-09-26T10:14:00.160Z,97133.19
2022-09-26T10:17:09.937Z,97166.19
2022-09-26T10:20:00.785Z,97107.72
2022-09-26T10:22:41.006Z,97167.06
2022-09-26T10:25:17.237Z,97100.56
2022-09-26T10:27:53.633Z,97157.91
2022-09-26T10:30:27.254Z,97129.31
2022-09-26T10:33:02.821Z,97100.84
2022-09-26T10:35:49.834Z,97123.50
2022-09-26T10:38:25.817Z,97146.91
2022-09-26T10:41:02.197Z,97145.13
2022-09-26T10:43:37.311Z,97025.06
2022-09-26T10:46:13.775Z,97026.22
2022-09-26T10:49:02.812Z,97091.09
2022-09-26T10:51:59.457Z,97117.16
2022-09-26T10:54:37.497Z,97129.03
2022-09-26T10:57:04.277Z,97105.84
2022-09-26T10:59:32.999Z,97109.34
2022-09-26T11:02:01.015Z,97070.94
2022-09-26T11:04:34.086Z,97079.97
2022-09-26T11:07:30.384Z,97084.97
2022-09-26T11:10:17.574Z,97132.41
2022-09-26T11:13:15.076Z,97128.72
2022-09-26T11:16:23.233Z,97121.72
2022-09-26T11:19:12.784Z,97115.72
2022-09-26T11:21:39.890Z,97122.78
2022-09-26T11:24:41.908Z,97124.94
2022-09-26T11:27:11.551Z,97116.97
2022-09-26T11:29:40.870Z,97119.91
2022-09-26T11:32:17.402Z,97080.75
2022-09-26T11:34:59.432Z,97036.47
2022-09-26T11:37:46.003Z,97098.53
2022-09-26T11:40:24.741Z,97102.69
2022-09-26T11:43:16.564Z,97094.25
2022-09-26T11:46:14.195Z,97082.75
2022-09-26T11:49:05.292Z,97030.19
2022-09-26T11:52:29.629Z,97066.50
2022-09-26T11:55:23.972Z,97063.53
2022-09-26T11:58:39.736Z,97082.00
2022-09-26T12:01:54.190Z,97067.38
2022-09-26T12:04:46.896Z,96990.59
2022-09-26T12:08:12.413Z,97024.84
2022-09-26T12:10:57.760Z,97048.25
2022-09-26T12:13:36.905Z,97042.09
2022-09-26T12:16:14.966Z,96995.16
2022-09-26T12:18:51.671Z,97028.81
2022-09-26T12:21:47.676Z,97022.69
2022-09-26T12:24:27.115Z,96954.81
2022-09-26T12:27:14.199Z,96963.94
2022-09-26T12:29:59.271Z,96953.34
2022-09-26T12:33:09.892Z,96952.19
2022-09-26T12:35:52.363Z,96993.09
2022-09-26T12:38:56.774Z,96993.00
2022-09-26T12:41:38.902Z,96987.38
2022-09-26T12:44:26.441Z,96993.25
2022-09-26T12:47:35.819Z,96972.13
2022-09-26T12:50:34.333Z,96866.72
2022-09-26T12:53:41.627Z,96904.66
2022-09-26T12:56:16.275Z,96859.81
2022-09-26T12:59:17.893Z,96940.72
2022-09-26T13:02:10.361Z,96977.84
2022-09-26T13:04:49.229Z,96965.13
2022-09-26T13:07:54.927Z,96933.78
2022-09-26T13:10:28.370Z,96965.97
2022-09-26T13:13:03.960Z,96964.19
2022-09-26T13:15:48.745Z,96961.16
2022-09-26T13:18:26.595Z,96895.47
2022-09-26T13:21:02.677Z,96939.53
2022-09-26T13:23:53.603Z,96883.03
2022-09-26T13:26:39.324Z,96949.50
2022-09-26T13:29:31.417Z,96952.94
2022-09-26T13:32:20.789Z,96841.84
2022-09-26T13:35:06.136Z,96900.69
2022-09-26T13:37:48.269Z,96938.94
2022-09-26T13:40:44.887Z,96889.38
2022-09-26T13:43:59.257Z,96936.47
2022-09-26T13:46:59.265Z,96946.41
2022-09-26T13:49:33.338Z,96929.66
2022-09-26T13:52:28.236Z,96936.34
2022-09-26T13:55:00.077Z,96846.41
2022-09-26T13:57:44.788Z,96883.94
2022-09-26T14:00:20.925Z,96920.31
2022-09-26T14:03:08.608Z,96923.72
2022-09-26T14:05:41.452Z,96914.13
2022-09-26T14:08:29.229Z,96899.44
2022-09-26T14:11:11.679Z,96905.16
2022-09-26T14:13:38.996Z,96901.91
2022-09-26T14:16:28.763Z,96903.22
2022-09-26T14:19:23.354Z,96728.94
2022-09-26T14:22:04.484Z,96889.56
2022-09-26T14:24:44.140Z,96887.50
2022-09-26T14:27:11.247Z,96892.91
2022-09-26T14:29:41.202Z,96891.84
2022-09-26T14:32:08.526Z,96884.75
2022-09-26T14:34:54.085Z,96878.94
2022-09-26T14:37:23.808Z,96876.56
2022-09-26T14:40:10.718Z,96872.56
2022-09-26T14:42:43.286Z,96880.31
2022-09-26T14:45:16.075Z,96874.75
2022-09-26T14:47:56.901Z,96748.47
2022-09-26T14:50:41.841Z,96815.38
2022-09-26T14:53:26.880Z,96866.94
2022-09-26T14:56:04.589Z,96811.72
2022-09-26T14:58:34.254Z,96870.94
2022-09-26T15:01:05.368Z,96743.94
2022-09-26T15:03:34.357Z,96830.47
2022-09-26T15:06:04.523Z,96832.53
2022-09-26T15:08:39.090Z,96795.28
2022-09-26T15:11:07.677Z,96733.81
2022-09-26T15:13:44.934Z,96858.69
2022-09-26T15:16:27.106Z,96848.03
2022-09-26T15:19:02.891Z,96852.22
2022-09-26T15:21:38.896Z,96847.59
2022-09-26T15:24:32.845Z,96844.34
2022-09-26T15:27:08.321Z,96718.66
2022-09-26T15:29:36.847Z,96831.81
2022-09-26T15:32:03.829Z,96808.44
2022-09-26T15:34:36.568Z,96787.31
2022-09-26T15:37:15.763Z,96833.06
2022-09-26T15:39:42.782Z,96831.38
2022-09-26T15:42:09.567Z,96837.50
2022-09-26T15:44:36.410Z,96768.66
2022-09-26T15:47:28.621Z,96837.06
2022-09-26T15:50:20.250Z,96823.78
2022-09-26T15:52:52.401Z,96831.72
2022-09-26T15:55:27.100Z,96780.53
2022-09-26T15:57:57.653Z,96773.25
2022-09-26T16:00:25.047Z,96767.91
2022-09-26T16:02:52.737Z,96798.09
2022-09-26T16:05:22.216Z,96830.50
2022-09-26T16:07:52.562Z,96764.25
2022-09-26T16:10:28.037Z,96815.00
2022-09-26T16:12:56.975Z,96728.03
2022-09-26T16:15:30.554Z,96813.88
2022-09-26T16:17:58.740Z,96774.75
2022-09-26T16:20:31.279Z,96803.63
2022-09-26T16:23:04.882Z,96666.13
2022-09-26T16:25:52.377Z,96764.00
2022-09-26T16:28:22.608Z,96790.53
2022-09-26T16:30:55.837Z,96778.56
2022-09-26T16:33:29.148Z,96781.88
2022-09-26T16:36:03.492Z,96746.50
2022-09-26T16:38:33.795Z,96779.28
2022-09-26T16:41:31.365Z,96746.94
2022-09-26T16:44:23.875Z,96777.69
2022-09-26T16:46:55.013Z,96766.88
2022-09-26T16:49:29.773Z,96760.38
2022-09-26T16:52:32.949Z,96729.63
2022-09-26T16:55:02.418Z,96717.44
2022-09-26T16:57:36.758Z,96705.41
2022-09-26T17:00:24.764Z,96703.78
2022-09-26T17:02:51.422Z,96667.84
2022-09-26T17:05:20.675Z,96597.06
2022-09-26T17:07:51.285Z,96717.47
2022-09-26T17:10:19.636Z,96692.00
2022-09-26T17:12:46.511Z,96614.66
2022-09-26T17:15:18.031Z,96724.88
2022-09-26T17:17:44.660Z,96670.28
2022-09-26T17:20:13.249Z,96710.72
2022-09-26T17:22:40.015Z,96626.78
2022-09-26T17:25:12.031Z,96697.91
2022-09-26T17:27:39.681Z,96689.97
2022-09-26T17:30:18.609Z,96743.94
2022-09-26T17:32:48.485Z,96583.09
2022-09-26T17:35:33.709Z,96742.09
2022-09-26T17:38:01.027Z,96706.94
2022-09-26T17:40:30.623Z,96698.81
2022-09-26T17:42:58.947Z,96727.88
2022-09-26T17:45:41.186Z,96628.66
2022-09-26T17:48:14.248Z,96725.81
2022-09-26T17:50:41.608Z,96696.03
2022-09-26T17:53:15.318Z,96700.84
2022-09-26T17:55:42.157Z,96687.31
2022-09-26T17:58:10.061Z,96709.25
2022-09-26T18:00:37.143Z,96674.72
2022-09-26T18:03:04.351Z,96553.00
2022-09-26T18:05:37.474Z,96662.59
2022-09-26T18:08:15.236Z,96694.06
2022-09-26T18:10:48.122Z,96704.56
2022-09-26T18:13:15.414Z,96639.91
2022-09-26T18:15:42.145Z,96670.03
2022-09-26T18:18:18.165Z,96697.00
2022-09-26T18:20:45.397Z,96680.34
2022-09-26T18:23:25.535Z,96636.78
2022-09-26T18:25:54.992Z,96656.56
2022-09-26T18:28:23.348Z,96582.84
2022-09-26T18:30:57.557Z,96641.31
2022-09-26T18:33:25.262Z,96595.44
2022-09-26T18:35:51.848Z,96651.59
2022-09-26T18:38:18.596Z,96654.69
2022-09-26T18:40:52.047Z,96658.59
2022-09-26T18:43:24.062Z,96616.72
2022-09-26T18:45:51.004Z,96635.44
2022-09-26T18:48:29.925Z,96625.53
2022-09-26T18:50:56.643Z,96592.78
2022-09-26T18:53:25.638Z,96623.66
2022-09-26T18:55:52.588Z,96589.81
2022-09-26T18:58:19.202Z,96619.66
2022-09-26T19:00:46.117Z,96603.13
2022-09-26T19:03:12.865Z,96579.28
2022-09-26T19:05:39.747Z,96583.25
2022-09-26T19:08:06.687Z,96571.81
2022-09-26T19:10:33.581Z,96630.38
2022-09-26T19:13:00.165Z,96571.03
2022-09-26T19:15:26.829Z,96396.09
2022-09-26T19:17:53.618Z,96519.13
2022-09-26T19:20:20.327Z,96600.78
2022-09-26T19:22:47.041Z,96591.78
2022-09-26T19:25:13.814Z,96524.94
2022-09-26T19:27:50.586Z,96592.78
2022-09-26T19:30:19.594Z,96630.63
2022-09-26T19:32:49.152Z,96629.69
2022-09-26T19:35:24.321Z,96622.03
2022-09-26T19:37:51.450Z,96464.91
2022-09-26T19:40:21.051Z,96493.19
2022-09-26T19:42:47.870Z,96583.59
2022-09-26T19:45:14.706Z,96583.53
2022-09-26T19:47:46.614Z,96607.78
2022-09-26T19:50:24.896Z,96505.13
2022-09-26T19:52:53.096Z,96533.53
2022-09-26T19:55:28.588Z,96602.75
2022-09-26T19:58:12.314Z,96597.25
2022-09-26T20:00:39.637Z,96547.78
2022-09-26T20:03:06.472Z,96542.00
2022-09-26T20:05:33.234Z,96569.25
2022-09-26T20:08:00.421Z,96491.19
2022-09-26T20:10:27.097Z,96475.75
2022-09-26T20:12:53.700Z,96432.13
2022-09-26T20:15:20.729Z,96523.22
2022-09-26T20:17:48.743Z,96556.13
2022-09-26T20:20:17.594Z,96541.72
2022-09-26T20:22:44.994Z,96539.88
2022-09-26T20:25:27.506Z,96566.69
2022-09-26T20:27:55.744Z,96539.13
2022-09-26T20:30:22.654Z,96502.03
2022-09-26T20:32:49.390Z,96480.75
2022-09-26T20:35:16.124Z,96279.00
2022-09-26T20:37:43.748Z,96513.50
2022-09-26T20:40:16.058Z,96492.16
2022-09-26T20:42:43.308Z,96515.22
2022-09-26T20:45:16.558Z,96465.38
2022-09-26T20:47:44.613Z,96479.44
2022-09-26T20:50:19.706Z,96563.91
2022-09-26T20:52:46.789Z,96570.13
2022-09-26T20:55:18.306Z,96553.44
2022-09-26T20:57:45.873Z,96559.19
2022-09-26T21:00:20.651Z,96482.66
2022-09-26T21:02:50.739Z,96550.81
2022-09-26T21:05:23.444Z,96521.34
2022-09-26T21:07:52.055Z,96393.00
2022-09-26T21:10:32.685Z,96543.00
2022-09-26T21:13:00.038Z,96470.72
2022-09-26T21:15:29.313Z,96531.78
2022-09-26T21:17:56.318Z,96459.72
2022-09-26T21:20:27.399Z,96525.16
2022-09-26T21:23:12.505Z,96498.03
2022-09-26T21:25:39.335Z,96500.75
2022-09-26T21:28:27.811Z,96516.88
2022-09-26T21:31:02.500Z,96505.25
2022-09-26T21:33:29.576Z,96460.31
2022-09-26T21:35:57.758Z,96491.03
2022-09-26T21:38:25.649Z,96440.47
2022-09-26T21:40:59.550Z,96394.22
2022-09-26T21:43:31.141Z,96485.69
2022-09-26T21:45:57.858Z,96281.94
2022-09-26T21:48:24.859Z,96432.78
2022-09-26T21:50:58.198Z,96385.13
2022-09-26T21:53:53.893Z,96474.97
2022-09-26T21:56:25.763Z,96469.47
2022-09-26T21:58:52.759Z,96386.44
2022-09-26T22:01:19.465Z,96371.50
2022-09-26T22:03:46.232Z,96352.25
2022-09-26T22:06:12.897Z,96411.81
2022-09-26T22:08:40.619Z,96432.78
2022-09-26T22:11:08.478Z,96434.31
2022-09-26T22:13:36.711Z,96425.25
2022-09-26T22:16:08.348Z,96421.34
2022-09-26T22:18:35.584Z,96343.94
2022-09-26T22:21:02.191Z,96367.06
2022-09-26T22:23:28.924Z,96344.88
2022-09-26T22:25:55.538Z,96370.63
2022-09-26T22:28:22.691Z,96330.50
2022-09-26T22:30:49.472Z,96357.72
2022-09-26T22:33:18.246Z,96323.06
2022-09-26T22:35:51.155Z,96313.22
2022-09-26T22:38:18.171Z,96366.25
2022-09-26T22:40:45.667Z,96374.75
2022-09-26T22:43:12.529Z,96262.38
2022-09-26T22:45:39.188Z,96353.00
2022-09-26T22:48:05.839Z,96328.22
2022-09-26T22:50:32.657Z,96280.13
2022-09-26T22:52:59.318Z,96063.84
2022-09-26T22:55:25.962Z,96086.38
2022-09-26T22:57:52.729Z,96299.22
2022-09-26T23:00:19.514Z,96294.09
2022-09-26T23:02:46.243Z,96309.72
2022-09-26T23:05:12.983Z,96266.16
2022-09-26T23:07:40.030Z,96256.69
2022-09-26T23:10:06.981Z,96264.47
2022-09-26T23:12:33.758Z,96301.94
2022-09-26T23:15:00.377Z,96286.53
2022-09-26T23:17:27.082Z,96221.72
2022-09-26T23:19:53.739Z,95981.66
2022-09-26T23:22:20.438Z,96199.97
2022-09-26T23:24:47.036Z,96271.91
2022-09-26T23:27:13.715Z,96229.31
2022-09-26T23:29:40.340Z,96257.22
2022-09-26T23:32:07.121Z,96260.47
2022-09-26T23:34:33.752Z,96279.41
2022-09-26T23:37:00.469Z,96226.13
2022-09-26T23:39:27.062Z,96284.13
2022-09-26T23:41:53.728Z,96192.31
2022-09-26T23:44:20.427Z,96246.38
2022-09-26T23:46:47.133Z,96245.81
2022-09-26T23:49:13.822Z,96256.28
2022-09-26T23:51:40.489Z,96161.63
2022-09-26T23:54:07.121Z,96074.16
2022-09-26T23:56:34.185Z,96184.97
2022-09-26T23:59:00.923Z,96222.94
